createdAt,value
2017-06-28T00:00:12.189Z,0
2017-06-28T00:00:32.866Z,0
2017-06-28T00:00:53.611Z,0
2017-06-28T00:01:14.293Z,0
2017-06-28T00:01:34.972Z,0
2017-06-28T00:01:56.263Z,0
2017-06-28T00:02:17.005Z,0
2017-06-28T00:02:37.685Z,0
2017-06-28T00:02:58.372Z,0
2017-06-28T00:03:19.048Z,0
2017-06-28T00:03:41.092Z,0
2017-06-28T00:04:02.671Z,0
2017-06-28T00:04:23.356Z,0
2017-06-28T00:04:43.999Z,0
2017-06-28T00:05:06.097Z,0
2017-06-28T00:05:28.239Z,0
2017-06-28T00:05:48.924Z,0
2017-06-28T00:06:09.594Z,0
2017-06-28T00:06:30.286Z,0
2017-06-28T00:06:50.991Z,0
2017-06-28T00:07:13.092Z,0
2017-06-28T00:07:33.799Z,0
2017-06-28T00:07:56.186Z,0
2017-06-28T00:08:17.635Z,0
2017-06-28T00:08:39.207Z,0
2017-06-28T00:08:59.871Z,0
2017-06-28T00:09:20.569Z,0
2017-06-28T00:09:41.243Z,0
2017-06-28T00:10:02.749Z,0
2017-06-28T00:10:23.452Z,0
2017-06-28T00:10:45.594Z,0
2017-06-28T00:11:07.098Z,0
2017-06-28T00:11:28.697Z,0
2017-06-28T00:11:49.382Z,0
2017-06-28T00:12:10.031Z,0
2017-06-28T00:12:30.716Z,0
2017-06-28T00:12:51.386Z,0
2017-06-28T00:13:12.058Z,0
2017-06-28T00:13:32.707Z,0
2017-06-28T00:13:54.188Z,0
2017-06-28T00:14:14.920Z,0
2017-06-28T00:14:36.224Z,0
2017-06-28T00:14:56.915Z,0
2017-06-28T00:15:18.305Z,0
2017-06-28T00:15:39.599Z,0
2017-06-28T00:16:00.297Z,0
2017-06-28T00:16:21.700Z,0
2017-06-28T00:16:43.099Z,0
2017-06-28T00:17:03.781Z,0
2017-06-28T00:17:25.127Z,0
2017-06-28T00:17:46.705Z,0
2017-06-28T00:18:07.445Z,0
2017-06-28T00:18:28.135Z,0
2017-06-28T00:18:49.782Z,0
2017-06-28T00:19:10.461Z,0
2017-06-28T00:19:31.144Z,0
2017-06-28T00:19:52.627Z,0
2017-06-28T00:20:14.162Z,0
2017-06-28T00:20:35.602Z,0
2017-06-28T00:20:57.212Z,0
2017-06-28T00:21:17.896Z,0
2017-06-28T00:21:39.236Z,0
2017-06-28T00:21:59.920Z,0
2017-06-28T00:22:21.213Z,0
2017-06-28T00:22:41.909Z,0
2017-06-28T00:23:03.103Z,0
2017-06-28T00:23:24.738Z,0
2017-06-28T00:23:45.407Z,0
2017-06-28T00:24:06.068Z,0
2017-06-28T00:24:27.709Z,0
2017-06-28T00:24:48.419Z,0
2017-06-28T00:25:10.227Z,0
2017-06-28T00:25:32.727Z,0
2017-06-28T00:25:54.182Z,0
2017-06-28T00:26:14.861Z,0
2017-06-28T00:26:35.542Z,0
2017-06-28T00:26:56.235Z,0
2017-06-28T00:27:17.725Z,0
2017-06-28T00:27:41.118Z,0
2017-06-28T00:28:01.786Z,0
2017-06-28T00:28:23.225Z,0
2017-06-28T00:28:43.880Z,0
2017-06-28T00:29:04.576Z,0
2017-06-28T00:29:25.284Z,0
2017-06-28T00:29:46.683Z,0
2017-06-28T00:30:08.110Z,0
2017-06-28T00:30:28.848Z,0
2017-06-28T00:30:49.538Z,0
2017-06-28T00:31:10.823Z,0
2017-06-28T00:31:32.256Z,0
2017-06-28T00:31:52.920Z,0
2017-06-28T00:32:14.210Z,0
2017-06-28T00:32:34.886Z,0
2017-06-28T00:32:55.578Z,0
2017-06-28T00:33:16.260Z,0
2017-06-28T00:33:37.709Z,0
2017-06-28T00:33:58.390Z,0
2017-06-28T00:34:19.036Z,0
2017-06-28T00:34:39.695Z,0
2017-06-28T00:35:00.377Z,0
2017-06-28T00:35:21.111Z,0
2017-06-28T00:35:41.770Z,0
2017-06-28T00:36:02.461Z,0
2017-06-28T00:36:23.117Z,0
2017-06-28T00:36:43.812Z,0
2017-06-28T00:37:04.494Z,0
2017-06-28T00:37:25.210Z,0
2017-06-28T00:37:45.885Z,0
2017-06-28T00:38:07.298Z,0
2017-06-28T00:38:27.979Z,0
2017-06-28T00:38:49.295Z,0
2017-06-28T00:39:09.972Z,0
2017-06-28T00:39:30.658Z,0
2017-06-28T00:39:51.361Z,0
2017-06-28T00:40:12.060Z,0
2017-06-28T00:40:33.247Z,0
2017-06-28T00:40:54.696Z,0
2017-06-28T00:41:15.358Z,0
2017-06-28T00:41:36.036Z,0
2017-06-28T00:41:56.691Z,0
2017-06-28T00:42:17.380Z,0
2017-06-28T00:42:38.069Z,0
2017-06-28T00:42:58.754Z,0
2017-06-28T00:43:19.422Z,0
2017-06-28T00:43:40.084Z,0
2017-06-28T00:44:00.759Z,0
2017-06-28T00:44:21.457Z,0
2017-06-28T00:44:42.151Z,0
2017-06-28T00:45:02.859Z,0
2017-06-28T00:45:23.528Z,0
2017-06-28T00:45:44.211Z,0
2017-06-28T00:46:05.839Z,0
2017-06-28T00:46:26.485Z,0
2017-06-28T00:46:47.747Z,0
2017-06-28T00:47:08.429Z,0
2017-06-28T00:47:29.105Z,0
2017-06-28T00:47:49.827Z,0
2017-06-28T00:48:10.508Z,0
2017-06-28T00:48:31.196Z,0
2017-06-28T00:48:51.897Z,0
2017-06-28T00:49:12.566Z,0
2017-06-28T00:49:33.242Z,0
2017-06-28T00:49:54.618Z,0
2017-06-28T00:50:15.266Z,0
2017-06-28T00:50:35.997Z,0
2017-06-28T00:50:57.217Z,0
2017-06-28T00:51:18.624Z,0
2017-06-28T00:51:39.307Z,0
2017-06-28T00:51:59.957Z,0
2017-06-28T00:52:20.702Z,0
2017-06-28T00:52:41.380Z,0
2017-06-28T00:53:02.072Z,0
2017-06-28T00:53:22.733Z,0
2017-06-28T00:53:43.443Z,0
2017-06-28T00:54:05.126Z,0
2017-06-28T00:54:26.807Z,0
2017-06-28T00:54:47.517Z,0
2017-06-28T00:55:09.154Z,0
2017-06-28T00:55:31.629Z,0
2017-06-28T00:55:52.330Z,0
2017-06-28T00:56:13.072Z,0
2017-06-28T00:56:33.724Z,0
2017-06-28T00:56:56.180Z,0
2017-06-28T00:57:18.629Z,0
2017-06-28T00:57:39.348Z,0
2017-06-28T00:58:00.034Z,0
2017-06-28T00:58:21.636Z,0
2017-06-28T00:58:43.242Z,0
2017-06-28T00:59:03.942Z,0
2017-06-28T00:59:24.658Z,0
2017-06-28T00:59:45.329Z,0
2017-06-28T01:00:06.666Z,0
2017-06-28T01:00:27.342Z,0
2017-06-28T01:00:48.034Z,0
2017-06-28T01:01:08.728Z,0
2017-06-28T01:01:30.319Z,0
2017-06-28T01:01:51.001Z,0
2017-06-28T01:02:11.680Z,0
2017-06-28T01:02:32.377Z,0
2017-06-28T01:02:53.063Z,0
2017-06-28T01:03:13.744Z,0
2017-06-28T01:03:34.421Z,0
2017-06-28T01:03:55.142Z,0
2017-06-28T01:04:15.838Z,0
2017-06-28T01:04:36.518Z,0
2017-06-28T01:04:57.198Z,0
2017-06-28T01:05:17.856Z,0
2017-06-28T01:05:38.545Z,0
2017-06-28T01:05:59.195Z,0
2017-06-28T01:06:19.904Z,0
2017-06-28T01:06:40.620Z,0
2017-06-28T01:07:01.317Z,0
2017-06-28T01:07:22.009Z,0
2017-06-28T01:07:42.654Z,0
2017-06-28T01:08:03.328Z,0
2017-06-28T01:08:23.993Z,0
2017-06-28T01:08:44.709Z,0
2017-06-28T01:09:05.411Z,0
2017-06-28T01:09:26.082Z,0
2017-06-28T01:09:46.805Z,0
2017-06-28T01:10:08.174Z,0
2017-06-28T01:10:29.742Z,0
2017-06-28T01:10:50.417Z,0
2017-06-28T01:11:11.090Z,0
2017-06-28T01:11:31.758Z,0
2017-06-28T01:11:53.233Z,0
2017-06-28T01:12:13.890Z,0
2017-06-28T01:12:34.603Z,0
2017-06-28T01:12:55.243Z,0
2017-06-28T01:13:15.924Z,0
2017-06-28T01:13:36.606Z,0
2017-06-28T01:13:58.272Z,0
2017-06-28T01:14:18.959Z,0
2017-06-28T01:14:39.649Z,0
2017-06-28T01:15:00.309Z,0
2017-06-28T01:15:21.669Z,0
2017-06-28T01:15:42.315Z,0
2017-06-28T01:16:02.994Z,0
2017-06-28T01:16:23.649Z,0
2017-06-28T01:16:44.357Z,0
2017-06-28T01:17:05.017Z,0
2017-06-28T01:17:25.707Z,0
2017-06-28T01:17:46.422Z,0
2017-06-28T01:18:07.133Z,0
2017-06-28T01:18:27.829Z,0
2017-06-28T01:18:49.264Z,0
2017-06-28T01:19:09.927Z,0
2017-06-28T01:19:30.621Z,0
2017-06-28T01:19:51.321Z,0
2017-06-28T01:20:12.010Z,0
2017-06-28T01:20:33.228Z,0
2017-06-28T01:20:53.915Z,0
2017-06-28T01:21:15.136Z,0
2017-06-28T01:21:35.849Z,0
2017-06-28T01:21:57.279Z,0
2017-06-28T01:22:17.967Z,0
2017-06-28T01:22:38.675Z,0
2017-06-28T01:22:59.331Z,0
2017-06-28T01:23:20.017Z,0
2017-06-28T01:23:40.700Z,0
2017-06-28T01:24:01.358Z,0
2017-06-28T01:24:22.034Z,0
2017-06-28T01:24:42.710Z,0
2017-06-28T01:25:04.410Z,0
2017-06-28T01:25:25.090Z,0
2017-06-28T01:25:45.817Z,0
2017-06-28T01:26:07.351Z,0
2017-06-28T01:26:28.777Z,0
2017-06-28T01:26:50.221Z,0
2017-06-28T01:27:10.926Z,0
2017-06-28T01:27:32.249Z,0
2017-06-28T01:27:52.995Z,0
2017-06-28T01:28:14.158Z,0
2017-06-28T01:28:34.885Z,0
2017-06-28T01:28:55.611Z,0
2017-06-28T01:29:16.274Z,0
2017-06-28T01:29:36.951Z,0
2017-06-28T01:29:57.684Z,0
2017-06-28T01:30:18.374Z,0
2017-06-28T01:30:39.046Z,0
2017-06-28T01:30:59.714Z,0
2017-06-28T01:31:20.412Z,0
2017-06-28T01:31:41.086Z,0
2017-06-28T01:32:01.787Z,0
2017-06-28T01:32:22.462Z,0
2017-06-28T01:32:43.182Z,0
2017-06-28T01:33:03.879Z,0
2017-06-28T01:33:25.803Z,0
2017-06-28T01:33:46.471Z,0
2017-06-28T01:34:07.684Z,0
2017-06-28T01:34:28.386Z,0
2017-06-28T01:34:49.135Z,0
2017-06-28T01:35:10.659Z,0
2017-06-28T01:35:32.161Z,0
2017-06-28T01:35:52.835Z,0
2017-06-28T01:36:13.503Z,0
2017-06-28T01:36:34.205Z,0
2017-06-28T01:36:54.951Z,0
2017-06-28T01:37:15.668Z,0
2017-06-28T01:37:36.335Z,0
2017-06-28T01:37:57.683Z,0
2017-06-28T01:38:18.852Z,0
2017-06-28T01:38:39.526Z,0
2017-06-28T01:39:00.243Z,0
2017-06-28T01:39:20.939Z,0
2017-06-28T01:39:41.603Z,0
2017-06-28T01:40:02.251Z,0
2017-06-28T01:40:24.659Z,0
2017-06-28T01:40:45.369Z,0
2017-06-28T01:41:06.041Z,0
2017-06-28T01:41:27.660Z,0
2017-06-28T01:41:49.285Z,0
2017-06-28T01:42:09.957Z,0
2017-06-28T01:42:31.290Z,0
2017-06-28T01:42:51.969Z,0
2017-06-28T01:43:14.267Z,0
2017-06-28T01:43:35.771Z,0
2017-06-28T01:43:56.447Z,0
2017-06-28T01:44:17.109Z,0
2017-06-28T01:44:37.754Z,0
2017-06-28T01:44:58.418Z,0
2017-06-28T01:45:19.065Z,0
2017-06-28T01:45:40.287Z,0
2017-06-28T01:46:01.728Z,0
2017-06-28T01:46:23.341Z,0
2017-06-28T01:46:44.012Z,0
2017-06-28T01:47:04.732Z,0
2017-06-28T01:47:25.403Z,0
2017-06-28T01:47:46.085Z,0
2017-06-28T01:48:07.664Z,0
2017-06-28T01:48:29.254Z,0
2017-06-28T01:48:49.983Z,0
2017-06-28T01:49:11.370Z,0
2017-06-28T01:49:33.241Z,0
2017-06-28T01:49:53.900Z,0
2017-06-28T01:50:14.568Z,0
2017-06-28T01:50:35.758Z,0
2017-06-28T01:50:56.475Z,0
2017-06-28T01:51:18.669Z,0
2017-06-28T01:51:41.265Z,0
2017-06-28T01:52:01.939Z,0
2017-06-28T01:52:22.611Z,0
2017-06-28T01:52:44.280Z,0
2017-06-28T01:53:04.966Z,0
2017-06-28T01:53:25.647Z,0
2017-06-28T01:53:46.352Z,0
2017-06-28T01:54:07.026Z,0
2017-06-28T01:54:27.682Z,0
2017-06-28T01:54:48.361Z,0
2017-06-28T01:55:09.008Z,0
2017-06-28T01:55:30.283Z,0
2017-06-28T01:55:50.980Z,0
2017-06-28T01:56:11.647Z,0
2017-06-28T01:56:32.323Z,0
2017-06-28T01:56:53.004Z,0
2017-06-28T01:57:14.378Z,0
2017-06-28T01:57:35.055Z,0
2017-06-28T01:57:55.741Z,0
2017-06-28T01:58:16.441Z,0
2017-06-28T01:58:37.148Z,0
2017-06-28T01:58:57.873Z,0
2017-06-28T01:59:18.583Z,0
2017-06-28T01:59:39.801Z,0
2017-06-28T02:00:01.181Z,0
2017-06-28T02:00:21.872Z,0
2017-06-28T02:00:42.558Z,0
2017-06-28T02:01:03.212Z,0
2017-06-28T02:01:23.920Z,0
2017-06-28T02:01:45.239Z,0
2017-06-28T02:02:06.915Z,0
2017-06-28T02:02:27.579Z,0
2017-06-28T02:02:48.245Z,0
2017-06-28T02:03:09.688Z,0
2017-06-28T02:03:30.371Z,0
2017-06-28T02:03:51.063Z,0
2017-06-28T02:04:12.674Z,0
2017-06-28T02:04:33.356Z,0
2017-06-28T02:04:54.067Z,0
2017-06-28T02:05:14.713Z,0
2017-06-28T02:05:36.180Z,0
2017-06-28T02:05:56.914Z,0
2017-06-28T02:06:17.622Z,0
2017-06-28T02:06:38.314Z,0
2017-06-28T02:06:59.679Z,0
2017-06-28T02:07:20.379Z,0
2017-06-28T02:07:41.047Z,4
2017-06-28T02:08:02.330Z,4
2017-06-28T02:08:23.936Z,4
2017-06-28T02:08:44.662Z,4
2017-06-28T02:09:05.329Z,4
2017-06-28T02:09:26.775Z,4
2017-06-28T02:09:47.468Z,4
2017-06-28T02:10:08.151Z,0
2017-06-28T02:10:28.815Z,0
2017-06-28T02:10:49.492Z,0
2017-06-28T02:11:10.193Z,0
2017-06-28T02:11:30.899Z,0
2017-06-28T02:11:51.569Z,0
2017-06-28T02:12:12.243Z,0
2017-06-28T02:12:32.959Z,4
2017-06-28T02:12:53.656Z,4
2017-06-28T02:13:15.208Z,4
2017-06-28T02:13:35.944Z,4
2017-06-28T02:13:57.394Z,4
2017-06-28T02:14:19.779Z,4
2017-06-28T02:14:40.484Z,4
2017-06-28T02:15:01.142Z,4
2017-06-28T02:15:23.342Z,4
2017-06-28T02:15:44.697Z,0
2017-06-28T02:16:05.373Z,4
2017-06-28T02:16:26.168Z,4
2017-06-28T02:16:47.016Z,4
2017-06-28T02:17:07.774Z,4
2017-06-28T02:17:28.447Z,4
2017-06-28T02:17:49.884Z,4
2017-06-28T02:18:10.573Z,4
2017-06-28T02:18:31.277Z,4
2017-06-28T02:18:51.959Z,4
2017-06-28T02:19:12.702Z,4
2017-06-28T02:19:33.509Z,8
2017-06-28T02:19:54.201Z,8
2017-06-28T02:20:14.928Z,8
2017-06-28T02:20:35.590Z,8
2017-06-28T02:20:56.276Z,4
2017-06-28T02:21:16.946Z,4
2017-06-28T02:21:37.616Z,4
2017-06-28T02:21:58.285Z,8
2017-06-28T02:22:19.686Z,8
2017-06-28T02:22:41.199Z,8
2017-06-28T02:23:01.877Z,8
2017-06-28T02:23:22.518Z,8
2017-06-28T02:23:43.184Z,8
2017-06-28T02:24:03.867Z,8
2017-06-28T02:24:25.218Z,12
2017-06-28T02:24:45.900Z,12
2017-06-28T02:25:07.189Z,8
2017-06-28T02:25:27.852Z,12
2017-06-28T02:25:48.525Z,12
2017-06-28T02:26:09.178Z,12
2017-06-28T02:26:29.843Z,12
2017-06-28T02:26:50.503Z,12
2017-06-28T02:27:11.234Z,16
2017-06-28T02:27:32.743Z,12
2017-06-28T02:27:53.472Z,16
2017-06-28T02:28:15.800Z,16
2017-06-28T02:28:36.468Z,16
2017-06-28T02:28:57.243Z,20
2017-06-28T02:29:17.943Z,16
2017-06-28T02:29:38.639Z,20
2017-06-28T02:29:59.353Z,16
2017-06-28T02:30:20.035Z,20
2017-06-28T02:30:42.219Z,20
2017-06-28T02:31:02.955Z,24
2017-06-28T02:31:24.201Z,20
2017-06-28T02:31:44.937Z,24
2017-06-28T02:32:06.348Z,24
2017-06-28T02:32:27.024Z,24
2017-06-28T02:32:47.760Z,28
2017-06-28T02:33:09.420Z,28
2017-06-28T02:33:30.599Z,28
2017-06-28T02:33:54.280Z,28
2017-06-28T02:34:15.901Z,32
2017-06-28T02:34:36.567Z,32
2017-06-28T02:34:57.214Z,36
2017-06-28T02:35:17.910Z,36
2017-06-28T02:35:38.596Z,36
2017-06-28T02:35:59.320Z,40
2017-06-28T02:36:20.008Z,40
2017-06-28T02:36:41.542Z,40
2017-06-28T02:37:02.241Z,44
2017-06-28T02:37:23.806Z,44
2017-06-28T02:37:45.375Z,44
2017-06-28T02:38:06.807Z,48
2017-06-28T02:38:28.437Z,48
2017-06-28T02:38:49.936Z,52
2017-06-28T02:39:10.634Z,52
2017-06-28T02:39:31.839Z,56
2017-06-28T02:39:53.243Z,56
2017-06-28T02:40:13.947Z,56
2017-06-28T02:40:34.656Z,60
2017-06-28T02:40:55.820Z,64
2017-06-28T02:41:16.506Z,64
2017-06-28T02:41:37.189Z,64
2017-06-28T02:41:57.849Z,72
2017-06-28T02:42:19.312Z,72
2017-06-28T02:42:40.788Z,76
2017-06-28T02:43:02.529Z,76
2017-06-28T02:43:23.239Z,80
2017-06-28T02:43:43.951Z,80
2017-06-28T02:44:04.722Z,80
2017-06-28T02:44:25.457Z,84
2017-06-28T02:44:46.130Z,88
2017-06-28T02:45:07.397Z,88
2017-06-28T02:45:28.130Z,92
2017-06-28T02:45:48.818Z,92
2017-06-28T02:46:10.279Z,96
2017-06-28T02:46:31.847Z,96
2017-06-28T02:46:53.209Z,100
2017-06-28T02:47:13.906Z,104
2017-06-28T02:47:34.584Z,108
2017-06-28T02:47:55.251Z,112
2017-06-28T02:48:15.965Z,112
2017-06-28T02:48:36.638Z,112
2017-06-28T02:48:57.317Z,116
2017-06-28T02:49:18.025Z,120
2017-06-28T02:49:38.717Z,124
2017-06-28T02:49:59.513Z,128
2017-06-28T02:50:20.813Z,132
2017-06-28T02:50:42.334Z,132
2017-06-28T02:51:02.984Z,136
2017-06-28T02:51:23.729Z,140
2017-06-28T02:51:44.427Z,144
2017-06-28T02:52:05.075Z,148
2017-06-28T02:52:26.421Z,152
2017-06-28T02:52:48.126Z,152
2017-06-28T02:53:08.846Z,160
2017-06-28T02:53:29.530Z,164
2017-06-28T02:53:50.290Z,168
2017-06-28T02:54:11.000Z,172
2017-06-28T02:54:32.218Z,176
2017-06-28T02:54:52.951Z,180
2017-06-28T02:55:13.658Z,184
2017-06-28T02:55:34.342Z,188
2017-06-28T02:55:55.038Z,192
2017-06-28T02:56:15.783Z,196
2017-06-28T02:56:37.393Z,200
2017-06-28T02:56:58.061Z,200
2017-06-28T02:57:18.729Z,208
2017-06-28T02:57:40.251Z,212
2017-06-28T02:58:00.963Z,220
2017-06-28T02:58:21.657Z,224
2017-06-28T02:58:43.726Z,224
2017-06-28T02:59:05.465Z,232
2017-06-28T02:59:27.823Z,236
2017-06-28T02:59:49.952Z,244
2017-06-28T03:00:11.498Z,248
2017-06-28T03:00:32.830Z,252
2017-06-28T03:00:53.508Z,256
2017-06-28T03:01:14.178Z,264
2017-06-28T03:01:34.840Z,264
2017-06-28T03:01:56.224Z,272
2017-06-28T03:02:17.490Z,276
2017-06-28T03:02:38.185Z,284
2017-06-28T03:02:58.836Z,284
2017-06-28T03:03:19.488Z,292
2017-06-28T03:03:40.176Z,300
2017-06-28T03:04:01.726Z,304
2017-06-28T03:04:22.418Z,312
2017-06-28T03:04:43.080Z,316
2017-06-28T03:05:03.872Z,324
2017-06-28T03:05:25.351Z,328
2017-06-28T03:05:46.016Z,336
2017-06-28T03:06:07.412Z,344
2017-06-28T03:06:28.081Z,348
2017-06-28T03:06:48.727Z,356
2017-06-28T03:07:10.309Z,368
2017-06-28T03:07:31.071Z,372
2017-06-28T03:07:52.466Z,380
2017-06-28T03:08:13.175Z,388
2017-06-28T03:08:33.911Z,396
2017-06-28T03:08:57.300Z,404
2017-06-28T03:09:17.997Z,412
2017-06-28T03:09:39.934Z,420
2017-06-28T03:10:00.592Z,428
2017-06-28T03:10:22.262Z,436
2017-06-28T03:10:42.948Z,444
2017-06-28T03:11:03.611Z,452
2017-06-28T03:11:24.870Z,464
2017-06-28T03:11:45.545Z,476
2017-06-28T03:12:06.233Z,484
2017-06-28T03:12:27.722Z,500
2017-06-28T03:12:48.396Z,512
2017-06-28T03:13:09.070Z,528
2017-06-28T03:13:30.349Z,544
2017-06-28T03:13:51.059Z,556
2017-06-28T03:14:11.728Z,568
2017-06-28T03:14:33.395Z,584
2017-06-28T03:14:55.092Z,596
2017-06-28T03:15:15.805Z,608
2017-06-28T03:15:36.236Z,616
2017-06-28T03:15:57.832Z,628
2017-06-28T03:16:18.529Z,640
2017-06-28T03:16:39.863Z,652
2017-06-28T03:17:00.531Z,660
2017-06-28T03:17:21.533Z,672
2017-06-28T03:17:42.259Z,688
2017-06-28T03:18:02.928Z,700
2017-06-28T03:18:23.578Z,708
2017-06-28T03:18:45.856Z,724
2017-06-28T03:19:07.310Z,732
2017-06-28T03:19:29.473Z,744
2017-06-28T03:19:51.737Z,752
2017-06-28T03:20:12.597Z,764
2017-06-28T03:20:33.389Z,772
2017-06-28T03:20:54.076Z,784
2017-06-28T03:21:14.774Z,792
2017-06-28T03:21:36.232Z,804
2017-06-28T03:21:56.984Z,816
2017-06-28T03:22:17.684Z,824
2017-06-28T03:22:38.379Z,844
2017-06-28T03:22:59.052Z,856
2017-06-28T03:23:19.728Z,864
2017-06-28T03:23:42.240Z,876
2017-06-28T03:24:02.930Z,888
2017-06-28T03:24:23.606Z,896
2017-06-28T03:24:44.313Z,908
2017-06-28T03:25:05.005Z,912
2017-06-28T03:25:25.685Z,924
2017-06-28T03:25:46.360Z,932
2017-06-28T03:26:07.836Z,940
2017-06-28T03:26:29.431Z,952
2017-06-28T03:26:50.813Z,964
2017-06-28T03:27:11.466Z,976
2017-06-28T03:27:32.736Z,984
2017-06-28T03:27:53.450Z,1000
2017-06-28T03:28:14.259Z,1008
2017-06-28T03:28:35.532Z,1016
2017-06-28T03:28:56.205Z,1032
2017-06-28T03:29:17.427Z,1044
2017-06-28T03:29:38.096Z,1060
2017-06-28T03:29:58.745Z,1072
2017-06-28T03:30:19.409Z,1084
2017-06-28T03:30:40.093Z,1100
2017-06-28T03:31:00.776Z,1112
2017-06-28T03:31:21.448Z,1128
2017-06-28T03:31:42.101Z,1140
2017-06-28T03:32:03.739Z,1156
2017-06-28T03:32:24.444Z,1168
2017-06-28T03:32:45.144Z,1188
2017-06-28T03:33:05.817Z,1200
2017-06-28T03:33:26.482Z,1212
2017-06-28T03:33:47.182Z,1220
2017-06-28T03:34:07.871Z,1228
2017-06-28T03:34:28.543Z,1232
2017-06-28T03:34:49.213Z,1228
2017-06-28T03:35:09.865Z,1228
2017-06-28T03:35:30.532Z,1220
2017-06-28T03:35:51.203Z,1220
2017-06-28T03:36:12.856Z,1216
2017-06-28T03:36:34.267Z,1220
2017-06-28T03:36:54.957Z,1228
2017-06-28T03:37:15.629Z,1248
2017-06-28T03:37:37.265Z,1264
2017-06-28T03:37:58.739Z,1296
2017-06-28T03:38:19.432Z,1320
2017-06-28T03:38:40.107Z,1348
2017-06-28T03:39:01.342Z,1380
2017-06-28T03:39:22.012Z,1404
2017-06-28T03:39:42.726Z,1428
2017-06-28T03:40:03.447Z,1456
2017-06-28T03:40:24.849Z,1480
2017-06-28T03:40:45.554Z,1500
2017-06-28T03:41:06.223Z,1520
2017-06-28T03:41:26.886Z,1540
2017-06-28T03:41:47.539Z,1556
2017-06-28T03:42:08.195Z,1568
2017-06-28T03:42:28.916Z,1580
2017-06-28T03:42:49.577Z,1596
2017-06-28T03:43:10.875Z,1608
2017-06-28T03:43:31.559Z,1620
2017-06-28T03:43:52.250Z,1632
2017-06-28T03:44:12.939Z,1648
2017-06-28T03:44:34.341Z,1660
2017-06-28T03:44:55.860Z,1672
2017-06-28T03:45:16.528Z,1688
2017-06-28T03:45:37.194Z,1708
2017-06-28T03:45:57.867Z,1724
2017-06-28T03:46:18.525Z,1740
2017-06-28T03:46:39.187Z,1756
2017-06-28T03:46:59.898Z,1772
2017-06-28T03:47:20.599Z,1788
2017-06-28T03:47:41.257Z,1804
2017-06-28T03:48:01.943Z,1820
2017-06-28T03:48:22.609Z,1840
2017-06-28T03:48:44.764Z,1864
2017-06-28T03:49:05.434Z,1884
2017-06-28T03:49:26.846Z,1900
2017-06-28T03:49:48.249Z,1916
2017-06-28T03:50:08.946Z,1936
2017-06-28T03:50:29.604Z,1952
2017-06-28T03:50:50.933Z,1972
2017-06-28T03:51:12.343Z,1984
2017-06-28T03:51:33.038Z,2004
2017-06-28T03:51:53.715Z,2020
2017-06-28T03:52:14.389Z,2028
2017-06-28T03:52:35.085Z,2040
2017-06-28T03:52:55.777Z,2056
2017-06-28T03:53:16.463Z,2064
2017-06-28T03:53:37.158Z,2072
2017-06-28T03:53:57.824Z,2072
2017-06-28T03:54:18.474Z,2080
2017-06-28T03:54:40.356Z,2080
2017-06-28T03:55:03.364Z,2080
2017-06-28T03:55:24.755Z,2084
2017-06-28T03:55:45.451Z,2092
2017-06-28T03:56:06.095Z,2100
2017-06-28T03:56:26.765Z,2096
2017-06-28T03:56:47.415Z,2112
2017-06-28T03:57:08.083Z,2120
2017-06-28T03:57:28.744Z,2128
2017-06-28T03:57:49.430Z,2132
2017-06-28T03:58:10.127Z,2140
2017-06-28T03:58:30.794Z,2152
2017-06-28T03:58:51.471Z,2156
2017-06-28T03:59:12.146Z,2168
2017-06-28T03:59:33.390Z,2184
2017-06-28T03:59:54.065Z,2196
2017-06-28T04:00:14.751Z,2208
2017-06-28T04:00:35.438Z,2220
2017-06-28T04:00:57.780Z,2224
2017-06-28T04:01:18.455Z,2236
2017-06-28T04:01:39.945Z,2252
2017-06-28T04:02:00.621Z,2264
2017-06-28T04:02:21.282Z,2276
2017-06-28T04:02:42.028Z,2284
2017-06-28T04:03:02.736Z,2308
2017-06-28T04:03:23.439Z,2324
2017-06-28T04:03:45.457Z,2352
2017-06-28T04:04:06.162Z,2376
2017-06-28T04:04:26.862Z,2400
2017-06-28T04:04:47.536Z,2420
2017-06-28T04:05:08.933Z,2452
2017-06-28T04:05:29.608Z,2468
2017-06-28T04:05:50.295Z,2468
2017-06-28T04:06:10.964Z,2472
2017-06-28T04:06:31.663Z,2476
2017-06-28T04:06:52.333Z,2472
2017-06-28T04:07:13.022Z,2484
2017-06-28T04:07:33.728Z,2512
2017-06-28T04:07:54.407Z,2524
2017-06-28T04:08:15.078Z,2532
2017-06-28T04:08:36.263Z,2544
2017-06-28T04:08:57.937Z,2552
2017-06-28T04:09:18.598Z,2560
2017-06-28T04:09:39.870Z,2564
2017-06-28T04:10:01.274Z,2584
2017-06-28T04:10:21.926Z,2620
2017-06-28T04:10:42.592Z,2632
2017-06-28T04:11:03.285Z,2644
2017-06-28T04:11:23.978Z,2660
2017-06-28T04:11:44.664Z,2664
2017-06-28T04:12:05.370Z,2676
2017-06-28T04:12:26.884Z,2688
2017-06-28T04:12:47.551Z,2688
2017-06-28T04:13:08.253Z,2696
2017-06-28T04:13:28.913Z,2708
2017-06-28T04:13:50.303Z,2716
2017-06-28T04:14:10.963Z,2720
2017-06-28T04:14:31.649Z,2712
2017-06-28T04:14:52.325Z,2716
2017-06-28T04:15:13.839Z,2728
2017-06-28T04:15:34.547Z,2744
2017-06-28T04:15:55.230Z,2752
2017-06-28T04:16:15.962Z,2764
2017-06-28T04:16:37.379Z,2776
2017-06-28T04:16:58.073Z,2796
2017-06-28T04:17:18.763Z,2820
2017-06-28T04:17:39.441Z,2840
2017-06-28T04:18:00.118Z,2860
2017-06-28T04:18:20.786Z,2876
2017-06-28T04:18:42.398Z,2884
2017-06-28T04:19:03.051Z,2900
2017-06-28T04:19:24.382Z,2916
2017-06-28T04:19:45.027Z,2944
2017-06-28T04:20:05.682Z,2952
2017-06-28T04:20:26.331Z,2960
2017-06-28T04:20:47.899Z,2964
2017-06-28T04:21:08.598Z,2960
2017-06-28T04:21:29.273Z,2956
2017-06-28T04:21:49.944Z,2960
2017-06-28T04:22:10.614Z,2964
2017-06-28T04:22:31.822Z,2968
2017-06-28T04:22:53.390Z,2976
2017-06-28T04:23:14.812Z,2984
2017-06-28T04:23:35.471Z,2996
2017-06-28T04:23:56.781Z,2992
2017-06-28T04:24:18.408Z,2992
2017-06-28T04:24:39.090Z,3000
2017-06-28T04:24:59.768Z,3020
2017-06-28T04:25:20.433Z,3024
2017-06-28T04:25:41.111Z,3040
2017-06-28T04:26:01.781Z,3052
2017-06-28T04:26:22.518Z,3056
2017-06-28T04:26:43.223Z,3044
2017-06-28T04:27:03.900Z,3060
2017-06-28T04:27:24.569Z,3060
2017-06-28T04:27:45.271Z,3060
2017-06-28T04:28:05.965Z,3072
2017-06-28T04:28:26.651Z,3084
2017-06-28T04:28:47.329Z,3100
2017-06-28T04:29:08.000Z,3112
2017-06-28T04:29:29.284Z,3120
2017-06-28T04:29:49.967Z,3128
2017-06-28T04:30:11.361Z,3140
2017-06-28T04:30:32.018Z,3156
2017-06-28T04:30:52.726Z,3168
2017-06-28T04:31:13.386Z,3164
2017-06-28T04:31:34.780Z,3168
2017-06-28T04:31:55.471Z,3172
2017-06-28T04:32:16.779Z,3172
2017-06-28T04:32:37.482Z,3168
2017-06-28T04:32:58.141Z,3180
2017-06-28T04:33:18.837Z,3184
2017-06-28T04:33:39.501Z,3200
2017-06-28T04:34:00.890Z,3192
2017-06-28T04:34:21.561Z,3184
2017-06-28T04:34:42.233Z,3188
2017-06-28T04:35:02.921Z,3200
2017-06-28T04:35:23.661Z,3204
2017-06-28T04:35:44.340Z,3204
2017-06-28T04:36:05.013Z,3204
2017-06-28T04:36:25.727Z,3200
2017-06-28T04:36:46.428Z,3204
2017-06-28T04:37:07.143Z,3204
2017-06-28T04:37:28.381Z,3204
2017-06-28T04:37:49.051Z,3176
2017-06-28T04:38:10.397Z,3192
2017-06-28T04:38:31.073Z,3188
2017-06-28T04:38:51.864Z,3184
2017-06-28T04:39:12.553Z,3168
2017-06-28T04:39:33.240Z,3140
2017-06-28T04:39:53.962Z,3108
2017-06-28T04:40:15.285Z,3072
2017-06-28T04:40:35.972Z,3052
2017-06-28T04:40:56.665Z,3040
2017-06-28T04:41:17.400Z,3044
2017-06-28T04:41:38.866Z,3080
2017-06-28T04:41:59.546Z,3120
2017-06-28T04:42:20.899Z,3156
2017-06-28T04:42:41.616Z,3192
2017-06-28T04:43:02.329Z,3228
2017-06-28T04:43:23.051Z,3264
2017-06-28T04:43:43.737Z,3312
2017-06-28T04:44:05.437Z,3356
2017-06-28T04:44:26.136Z,3396
2017-06-28T04:44:46.806Z,3448
2017-06-28T04:45:07.478Z,3484
2017-06-28T04:45:28.146Z,3500
2017-06-28T04:45:48.836Z,3520
2017-06-28T04:46:09.496Z,3532
2017-06-28T04:46:30.165Z,3540
2017-06-28T04:46:50.848Z,3540
2017-06-28T04:47:11.509Z,3544
2017-06-28T04:47:32.189Z,3540
2017-06-28T04:47:53.383Z,3536
2017-06-28T04:48:14.074Z,3540
2017-06-28T04:48:34.749Z,3544
2017-06-28T04:48:55.393Z,3548
2017-06-28T04:49:16.052Z,3544
2017-06-28T04:49:36.733Z,3544
2017-06-28T04:49:57.422Z,3536
2017-06-28T04:50:18.115Z,3536
2017-06-28T04:50:38.817Z,3536
2017-06-28T04:51:00.338Z,3544
2017-06-28T04:51:21.018Z,3556
2017-06-28T04:51:41.676Z,3560
2017-06-28T04:52:02.362Z,3568
2017-06-28T04:52:23.047Z,3572
2017-06-28T04:52:44.486Z,3580
2017-06-28T04:53:05.980Z,3592
2017-06-28T04:53:26.674Z,3600
2017-06-28T04:53:47.384Z,3612
2017-06-28T04:54:08.078Z,3620
2017-06-28T04:54:28.739Z,3624
2017-06-28T04:54:49.416Z,3636
2017-06-28T04:55:10.128Z,3648
2017-06-28T04:55:31.302Z,3660
2017-06-28T04:55:51.960Z,3664